createdAt,value
2023-03-02T00:00:15.347Z,1.29
2023-03-02T00:02:44.995Z,1.30
2023-03-02T00:05:14.840Z,1.30
2023-03-02T00:07:43.134Z,1.30
2023-03-02T00:10:12.320Z,1.20
2023-03-02T00:12:40.629Z,1.11
2023-03-02T00:15:10.757Z,1.07
2023-03-02T00:17:38.998Z,0.97
2023-03-02T00:20:12.139Z,0.96
2023-03-02T00:22:44.913Z,0.97
2023-03-02T00:25:15.155Z,0.94
2023-03-02T00:27:43.440Z,0.86
2023-03-02T00:30:14.842Z,0.93
2023-03-02T00:32:44.276Z,0.96
2023-03-02T00:35:12.818Z,0.86
2023-03-02T00:37:42.451Z,1.05
2023-03-02T00:40:12.530Z,0.87
2023-03-02T00:42:40.818Z,1.06
2023-03-02T00:45:15.220Z,0.84
2023-03-02T00:47:43.660Z,0.83
2023-03-02T00:50:12.472Z,1.51
2023-03-02T00:52:42.290Z,0.84
2023-03-02T00:55:11.164Z,0.90
2023-03-02T00:57:40.118Z,0.78
2023-03-02T01:00:11.816Z,0.72
2023-03-02T01:02:44.184Z,0.89
2023-03-02T01:05:23.072Z,0.68
2023-03-02T01:07:55.539Z,0.66
2023-03-02T01:10:23.814Z,0.67
2023-03-02T01:12:52.090Z,-0.49
2023-03-02T01:15:20.585Z,0.69
2023-03-02T01:17:49.128Z,0.85
2023-03-02T01:20:18.489Z,0.71
2023-03-02T01:22:47.043Z,0.72
2023-03-02T01:25:17.251Z,0.66
2023-03-02T01:27:45.581Z,0.64
2023-03-02T01:30:14.796Z,0.74
2023-03-02T01:32:43.076Z,0.75
2023-03-02T01:35:11.917Z,0.61
2023-03-02T01:37:40.243Z,0.59
2023-03-02T01:40:11.300Z,0.68
2023-03-02T01:42:48.068Z,0.62
2023-03-02T01:45:47.998Z,0.60
2023-03-02T01:48:28.817Z,0.51
2023-03-02T01:50:58.796Z,0.63
2023-03-02T01:53:31.712Z,0.44
2023-03-02T01:56:04.580Z,0.61
2023-03-02T01:58:37.805Z,0.57
2023-03-02T02:01:15.638Z,0.48
2023-03-02T02:03:46.893Z,0.39
2023-03-02T02:06:23.121Z,0.48
2023-03-02T02:08:54.242Z,0.51
2023-03-02T02:11:22.649Z,0.33
2023-03-02T02:13:58.588Z,0.39
2023-03-02T02:16:27.498Z,0.45
2023-03-02T02:18:56.843Z,0.32
2023-03-02T02:21:26.830Z,0.36
2023-03-02T02:24:09.478Z,0.39
2023-03-02T02:26:43.019Z,0.47
2023-03-02T02:29:15.854Z,0.32
2023-03-02T02:31:50.157Z,0.29
2023-03-02T02:34:23.236Z,0.33
2023-03-02T02:36:58.137Z,0.29
2023-03-02T02:39:32.703Z,0.43
2023-03-02T02:42:06.487Z,0.22
2023-03-02T02:44:34.967Z,0.19
2023-03-02T02:47:03.339Z,0.88
2023-03-02T02:49:36.319Z,0.25
2023-03-02T02:52:06.996Z,0.28
2023-03-02T02:54:36.422Z,0.15
2023-03-02T02:57:07.248Z,1.03
2023-03-02T02:59:40.045Z,0.35
2023-03-02T03:02:18.021Z,0.37
2023-03-02T03:04:49.752Z,0.37
2023-03-02T03:07:22.621Z,0.35
2023-03-02T03:09:58.761Z,0.31
2023-03-02T03:12:30.354Z,0.33
2023-03-02T03:14:59.661Z,0.26
2023-03-02T03:17:28.867Z,0.22
2023-03-02T03:20:06.296Z,0.22
2023-03-02T03:22:39.045Z,0.19
2023-03-02T03:25:10.283Z,0.18
2023-03-02T03:27:42.769Z,0.23
2023-03-02T03:30:15.249Z,0.18
2023-03-02T03:32:44.884Z,0.13
2023-03-02T03:35:14.708Z,0.18
2023-03-02T03:37:44.148Z,0.08
2023-03-02T03:40:13.319Z,-0.11
2023-03-02T03:42:46.572Z,0.10
2023-03-02T03:45:14.843Z,0.07
2023-03-02T03:47:44.896Z,-0.02
2023-03-02T03:50:13.490Z,0.08
2023-03-02T03:52:42.344Z,0.02
2023-03-02T03:55:16.305Z,0.02
2023-03-02T03:57:48.060Z,0.02
2023-03-02T04:00:18.906Z,0.06
2023-03-02T04:02:59.449Z,0.02
2023-03-02T04:05:31.562Z,-0.06
2023-03-02T04:08:02.219Z,0.09
2023-03-02T04:10:31.351Z,-0.74
2023-03-02T04:13:01.421Z,-0.12
2023-03-02T04:15:55.537Z,-0.05
2023-03-02T04:18:23.991Z,-0.11
2023-03-02T04:20:52.208Z,-0.06
2023-03-02T04:23:20.656Z,-0.11
2023-03-02T04:25:49.563Z,-0.14
2023-03-02T04:28:22.446Z,-0.18
2023-03-02T04:30:51.586Z,-0.19
2023-03-02T04:33:19.984Z,-0.23
2023-03-02T04:35:48.862Z,-0.13
2023-03-02T04:38:17.028Z,-0.17
2023-03-02T04:40:46.068Z,-0.22
2023-03-02T04:43:14.297Z,-0.19
2023-03-02T04:45:43.828Z,-0.29
2023-03-02T04:48:11.949Z,-0.19
2023-03-02T04:50:40.955Z,-0.31
2023-03-02T04:53:09.252Z,-0.27
2023-03-02T04:55:37.868Z,-0.25
2023-03-02T04:58:06.508Z,-0.32
2023-03-02T05:00:35.323Z,-0.43
2023-03-02T05:03:06.208Z,-0.23
2023-03-02T05:05:34.990Z,-0.36
2023-03-02T05:08:06.396Z,-0.28
2023-03-02T05:10:34.557Z,-0.18
2023-03-02T05:13:05.032Z,-0.33
2023-03-02T05:15:35.729Z,-0.78
2023-03-02T05:18:08.529Z,-0.42
2023-03-02T05:20:37.081Z,-0.69
2023-03-02T05:23:08.520Z,-0.47
2023-03-02T05:25:39.389Z,-0.36
2023-03-02T05:28:07.642Z,-0.37
2023-03-02T05:30:37.669Z,-0.31
2023-03-02T05:33:07.344Z,-0.30
2023-03-02T05:35:35.726Z,-0.35
2023-03-02T05:38:04.365Z,-0.24
2023-03-02T05:40:33.022Z,-0.32
2023-03-02T05:43:01.383Z,-0.37
2023-03-02T05:45:55.972Z,-0.27
2023-03-02T05:48:25.475Z,-0.30
2023-03-02T05:50:53.679Z,-0.49
2023-03-02T05:53:21.824Z,-0.50
2023-03-02T05:55:50.452Z,-0.44
2023-03-02T05:58:20.939Z,-0.37
2023-03-02T06:00:50.081Z,-0.48
2023-03-02T06:03:18.773Z,-0.39
2023-03-02T06:05:50.925Z,-0.45
2023-03-02T06:08:20.146Z,-0.54
2023-03-02T06:10:50.710Z,-0.46
2023-03-02T06:13:19.165Z,-0.45
2023-03-02T06:15:47.304Z,-0.60
2023-03-02T06:18:15.490Z,-0.51
2023-03-02T06:20:51.525Z,-0.47
2023-03-02T06:23:19.844Z,-0.45
2023-03-02T06:25:48.877Z,-0.49
2023-03-02T06:28:19.786Z,-0.71
2023-03-02T06:30:49.519Z,-0.44
2023-03-02T06:33:18.941Z,-0.28
2023-03-02T06:35:47.303Z,-0.27
2023-03-02T06:38:17.092Z,-0.59
2023-03-02T06:40:45.331Z,-0.33
2023-03-02T06:43:13.580Z,-0.42
2023-03-02T06:45:41.882Z,-0.17
2023-03-02T06:48:10.075Z,-0.15
2023-03-02T06:50:38.905Z,-0.14
2023-03-02T06:53:07.037Z,-0.02
2023-03-02T06:55:36.599Z,-0.02
2023-03-02T06:58:04.866Z,0.04
2023-03-02T07:00:33.404Z,0.05
2023-03-02T07:03:01.519Z,0.20
2023-03-02T07:05:32.192Z,0.18
2023-03-02T07:08:00.926Z,0.15
2023-03-02T07:10:29.551Z,0.26
2023-03-02T07:12:59.048Z,0.43
2023-03-02T07:15:27.367Z,0.38
2023-03-02T07:17:55.532Z,0.52
2023-03-02T07:20:23.737Z,0.68
2023-03-02T07:22:51.967Z,0.72
2023-03-02T07:25:20.435Z,0.77
2023-03-02T07:27:48.610Z,0.88
2023-03-02T07:30:21.109Z,1.03
2023-03-02T07:32:49.266Z,1.11
2023-03-02T07:35:18.212Z,1.26
2023-03-02T07:37:46.470Z,1.46
2023-03-02T07:40:15.538Z,1.47
2023-03-02T07:42:43.740Z,1.59
2023-03-02T07:45:20.227Z,1.73
2023-03-02T07:47:48.424Z,1.78
2023-03-02T07:50:16.803Z,1.70
2023-03-02T07:52:45.399Z,1.95
2023-03-02T07:55:13.631Z,2.02
2023-03-02T07:57:41.856Z,2.14
2023-03-02T08:00:12.011Z,2.24
2023-03-02T08:02:42.877Z,2.33
2023-03-02T08:05:12.744Z,2.49
2023-03-02T08:07:42.218Z,2.20
2023-03-02T08:10:12.621Z,2.72
2023-03-02T08:12:42.792Z,2.00
2023-03-02T08:15:12.906Z,3.02
2023-03-02T08:17:42.443Z,2.74
2023-03-02T08:20:12.176Z,3.20
2023-03-02T08:22:40.384Z,3.29
2023-03-02T08:25:09.660Z,3.40
2023-03-02T08:27:38.170Z,3.50
2023-03-02T08:30:09.487Z,3.60
2023-03-02T08:32:37.860Z,3.67
2023-03-02T08:35:08.903Z,3.67
2023-03-02T08:37:37.139Z,3.86
2023-03-02T08:40:06.292Z,3.95
2023-03-02T08:42:34.435Z,4.04
2023-03-02T08:45:02.694Z,4.10
2023-03-02T08:47:32.418Z,4.23
2023-03-02T08:50:00.685Z,4.95
2023-03-02T08:52:30.232Z,4.41
2023-03-02T08:54:58.480Z,4.67
2023-03-02T08:57:26.817Z,4.68
2023-03-02T08:59:55.110Z,4.73
2023-03-02T09:02:23.308Z,5.21
2023-03-02T09:04:51.804Z,4.87
2023-03-02T09:07:21.459Z,4.94
2023-03-02T09:09:51.078Z,5.03
2023-03-02T09:12:19.345Z,5.22
2023-03-02T09:14:47.660Z,5.26
2023-03-02T09:17:17.288Z,5.26
2023-03-02T09:19:45.433Z,5.46
2023-03-02T09:22:13.808Z,5.40
2023-03-02T09:24:42.057Z,5.51
2023-03-02T09:27:11.677Z,5.68
2023-03-02T09:29:39.904Z,5.81
2023-03-02T09:32:08.330Z,6.05
2023-03-02T09:34:36.634Z,5.92
2023-03-02T09:37:04.975Z,5.97
2023-03-02T09:39:33.353Z,6.15
2023-03-02T09:42:41.698Z,6.20
2023-03-02T09:45:26.616Z,6.49
2023-03-02T09:48:09.062Z,6.63
2023-03-02T09:50:42.482Z,6.48
2023-03-02T09:53:40.924Z,6.54
2023-03-02T09:56:17.670Z,6.69
2023-03-02T09:58:55.120Z,6.72
2023-03-02T10:01:35.314Z,6.85
2023-03-02T10:04:16.013Z,6.94
2023-03-02T10:06:44.278Z,6.83
2023-03-02T10:09:12.521Z,6.91
2023-03-02T10:11:59.324Z,7.13
2023-03-02T10:14:36.580Z,7.18
2023-03-02T10:17:24.280Z,7.23
2023-03-02T10:19:58.135Z,7.29
2023-03-02T10:22:31.702Z,7.48
2023-03-02T10:25:17.422Z,7.71
2023-03-02T10:27:53.408Z,7.74
2023-03-02T10:30:30.892Z,7.86
2023-03-02T10:33:04.114Z,7.95
2023-03-02T10:35:33.183Z,8.03
2023-03-02T10:38:12.750Z,8.00
2023-03-02T10:40:46.388Z,7.77
2023-03-02T10:43:20.359Z,8.20
2023-03-02T10:46:01.086Z,8.33
2023-03-02T10:48:29.393Z,8.51
2023-03-02T10:51:00.377Z,8.67
2023-03-02T10:53:29.038Z,8.73
2023-03-02T10:55:57.452Z,8.67
2023-03-02T10:58:31.341Z,8.98
2023-03-02T11:01:04.652Z,9.04
2023-03-02T11:03:34.202Z,9.04
2023-03-02T11:06:19.083Z,9.07
2023-03-02T11:08:47.370Z,9.25
2023-03-02T11:11:24.211Z,9.35
2023-03-02T11:13:53.346Z,9.60
2023-03-02T11:16:31.832Z,9.19
2023-03-02T11:19:03.725Z,9.25
2023-03-02T11:21:36.787Z,10.22
2023-03-02T11:24:12.301Z,10.33
2023-03-02T11:26:50.051Z,10.58
2023-03-02T11:29:34.934Z,10.74
2023-03-02T11:32:13.358Z,11.00
2023-03-02T11:34:46.698Z,11.01
2023-03-02T11:37:19.866Z,11.32
2023-03-02T11:40:14.500Z,11.47
2023-03-02T11:42:45.564Z,11.61
2023-03-02T11:45:24.663Z,11.53
2023-03-02T11:48:03.258Z,11.74
2023-03-02T11:50:34.015Z,11.74
2023-03-02T11:53:08.514Z,11.80
2023-03-02T11:55:45.521Z,11.69
2023-03-02T11:58:19.944Z,11.78
2023-03-02T12:00:50.560Z,11.76
2023-03-02T12:03:38.020Z,12.02
2023-03-02T12:06:12.283Z,12.30
2023-03-02T12:08:43.767Z,12.51
2023-03-02T12:11:39.482Z,12.60
2023-03-02T12:14:37.384Z,12.54
2023-03-02T12:17:17.805Z,12.70
2023-03-02T12:19:48.452Z,12.82
2023-03-02T12:22:30.035Z,12.79
2023-03-02T12:25:06.410Z,12.85
2023-03-02T12:27:42.063Z,13.04
2023-03-02T12:30:26.589Z,13.05
2023-03-02T12:33:18.866Z,13.15
2023-03-02T12:35:50.870Z,13.35
2023-03-02T12:38:29.446Z,13.35
2023-03-02T12:41:22.555Z,13.54
2023-03-02T12:44:08.562Z,13.64
2023-03-02T12:46:40.331Z,13.61
2023-03-02T12:49:27.162Z,13.84
2023-03-02T12:52:00.320Z,14.06
2023-03-02T12:54:31.262Z,14.19
2023-03-02T12:57:13.785Z,14.38
2023-03-02T12:59:43.259Z,14.06
2023-03-02T13:02:18.488Z,14.29
2023-03-02T13:04:55.277Z,14.35
2023-03-02T13:07:29.464Z,14.48
2023-03-02T13:09:59.831Z,14.59
2023-03-02T13:12:29.796Z,14.88
2023-03-02T13:14:59.989Z,14.95
2023-03-02T13:17:31.735Z,14.98
2023-03-02T13:20:02.558Z,14.91
2023-03-02T13:22:32.711Z,14.91
2023-03-02T13:25:03.643Z,15.24
2023-03-02T13:27:33.856Z,15.18
2023-03-02T13:30:12.475Z,15.52
2023-03-02T13:32:43.521Z,15.79
2023-03-02T13:35:24.982Z,15.45
2023-03-02T13:38:03.075Z,15.61
2023-03-02T13:40:41.575Z,15.84
2023-03-02T13:43:36.817Z,15.87
2023-03-02T13:46:36.650Z,16.24
2023-03-02T13:49:11.332Z,16.01
2023-03-02T13:51:43.297Z,16.18
2023-03-02T13:54:21.824Z,16.03
2023-03-02T13:56:52.067Z,16.15
2023-03-02T13:59:22.631Z,16.31
2023-03-02T14:01:51.322Z,16.36
2023-03-02T14:04:23.253Z,16.57
2023-03-02T14:06:52.416Z,16.22
2023-03-02T14:09:22.280Z,16.64
2023-03-02T14:11:54.400Z,16.88
2023-03-02T14:14:26.086Z,16.81
2023-03-02T14:16:54.350Z,17.07
2023-03-02T14:19:22.590Z,17.25
2023-03-02T14:21:50.828Z,17.07
2023-03-02T14:24:19.012Z,16.95
2023-03-02T14:26:50.357Z,16.83
2023-03-02T14:29:24.809Z,16.88
2023-03-02T14:31:54.356Z,16.80
2023-03-02T14:34:22.578Z,16.79
2023-03-02T14:36:54.874Z,17.17
2023-03-02T14:39:25.468Z,17.07
2023-03-02T14:41:55.885Z,17.25
2023-03-02T14:44:24.950Z,16.61
2023-03-02T14:46:53.453Z,17.29
2023-03-02T14:49:22.008Z,17.07
2023-03-02T14:52:00.044Z,17.06
2023-03-02T14:54:29.711Z,17.17
2023-03-02T14:56:59.273Z,16.82
2023-03-02T14:59:27.419Z,16.86
2023-03-02T15:01:58.195Z,17.32
2023-03-02T15:04:27.073Z,17.51
2023-03-02T15:06:58.799Z,17.31
2023-03-02T15:09:26.936Z,17.15
2023-03-02T15:11:55.097Z,17.49
2023-03-02T15:14:24.625Z,17.64
2023-03-02T15:16:52.880Z,17.74
2023-03-02T15:19:21.627Z,17.30
2023-03-02T15:21:49.806Z,17.63
2023-03-02T15:24:17.996Z,17.21
2023-03-02T15:26:46.288Z,17.38
2023-03-02T15:29:14.532Z,17.34
2023-03-02T15:31:44.104Z,17.56
2023-03-02T15:34:13.205Z,17.45
2023-03-02T15:36:41.881Z,17.72
2023-03-02T15:39:14.217Z,17.47
2023-03-02T15:41:43.094Z,16.89
2023-03-02T15:44:22.201Z,16.94
2023-03-02T15:46:55.210Z,16.99
2023-03-02T15:49:27.169Z,16.95
2023-03-02T15:51:57.418Z,16.73
2023-03-02T15:54:26.114Z,16.64
2023-03-02T15:56:54.624Z,16.37
2023-03-02T15:59:25.047Z,16.13
2023-03-02T16:01:59.181Z,15.67
2023-03-02T16:04:28.523Z,15.79
2023-03-02T16:06:56.812Z,15.95
2023-03-02T16:09:28.799Z,15.95
2023-03-02T16:11:57.057Z,15.88
2023-03-02T16:14:25.414Z,15.63
2023-03-02T16:16:55.069Z,15.65
2023-03-02T16:19:23.270Z,15.55
2023-03-02T16:21:51.492Z,15.40
2023-03-02T16:24:19.755Z,15.19
2023-03-02T16:26:49.597Z,15.25
2023-03-02T16:29:17.782Z,14.79
2023-03-02T16:31:48.156Z,14.37
2023-03-02T16:34:17.972Z,14.09
2023-03-02T16:36:46.300Z,13.65
2023-03-02T16:39:15.008Z,13.42
2023-03-02T16:41:46.130Z,13.14
2023-03-02T16:44:14.554Z,12.88
2023-03-02T16:46:43.629Z,11.90
2023-03-02T16:49:13.251Z,12.44
2023-03-02T16:51:43.926Z,12.04
2023-03-02T16:54:13.591Z,11.90
2023-03-02T16:56:45.252Z,11.85
2023-03-02T16:59:13.537Z,11.74
2023-03-02T17:01:41.809Z,11.35
2023-03-02T17:04:14.372Z,11.25
2023-03-02T17:07:03.875Z,10.97
2023-03-02T17:09:32.950Z,10.80
2023-03-02T17:12:01.224Z,10.53
2023-03-02T17:14:29.481Z,10.46
2023-03-02T17:16:58.248Z,10.34
2023-03-02T17:19:29.383Z,10.14
2023-03-02T17:22:00.381Z,9.51
2023-03-02T17:24:29.348Z,9.45
2023-03-02T17:26:57.800Z,9.88
2023-03-02T17:29:26.000Z,9.68
2023-03-02T17:31:54.548Z,9.47
2023-03-02T17:34:22.899Z,9.36
2023-03-02T17:36:51.160Z,9.30
2023-03-02T17:39:20.921Z,9.11
2023-03-02T17:41:49.099Z,8.98
2023-03-02T17:44:17.248Z,9.00
2023-03-02T17:46:46.413Z,8.70
2023-03-02T17:49:14.678Z,8.65
2023-03-02T17:51:43.464Z,8.55
2023-03-02T17:54:11.593Z,8.34
2023-03-02T17:56:41.258Z,8.29
2023-03-02T17:59:09.648Z,8.09
2023-03-02T18:01:37.844Z,7.76
2023-03-02T18:04:06.346Z,7.55
2023-03-02T18:06:34.881Z,7.54
2023-03-02T18:09:03.215Z,7.52
2023-03-02T18:11:31.531Z,7.26
2023-03-02T18:14:01.157Z,7.52
2023-03-02T18:16:29.978Z,7.44
2023-03-02T18:18:58.339Z,7.27
2023-03-02T18:21:26.678Z,7.32
2023-03-02T18:23:55.699Z,7.11
2023-03-02T18:26:24.422Z,6.79
2023-03-02T18:28:52.617Z,7.15
2023-03-02T18:31:23.140Z,7.00
2023-03-02T18:33:51.483Z,6.97
2023-03-02T18:36:20.113Z,6.85
2023-03-02T18:38:48.366Z,6.85
2023-03-02T18:41:16.615Z,6.72
2023-03-02T18:43:44.871Z,6.67
2023-03-02T18:46:23.211Z,6.72
2023-03-02T18:48:52.000Z,6.57
2023-03-02T18:51:21.314Z,6.64
2023-03-02T18:53:50.973Z,6.67
2023-03-02T18:56:20.573Z,6.33
2023-03-02T18:58:49.648Z,6.46
2023-03-02T19:01:18.688Z,6.35
2023-03-02T19:03:56.898Z,6.33
2023-03-02T19:06:51.879Z,6.28
2023-03-02T19:09:23.041Z,6.20
2023-03-02T19:11:51.489Z,6.11
2023-03-02T19:14:20.394Z,6.05
2023-03-02T19:16:49.192Z,5.70
2023-03-02T19:19:18.874Z,5.40
2023-03-02T19:21:47.150Z,5.28
2023-03-02T19:24:15.770Z,5.00
2023-03-02T19:26:44.124Z,5.10
2023-03-02T19:29:12.451Z,5.19
2023-03-02T19:31:40.802Z,4.86
2023-03-02T19:34:09.330Z,4.92
2023-03-02T19:36:39.325Z,4.79
2023-03-02T19:39:08.003Z,4.86
2023-03-02T19:41:36.418Z,4.96
2023-03-02T19:44:07.159Z,4.79
2023-03-02T19:46:35.814Z,5.08
2023-03-02T19:49:05.630Z,4.06
2023-03-02T19:51:34.280Z,3.79
2023-03-02T19:54:04.816Z,5.16
2023-03-02T19:56:35.222Z,4.33
2023-03-02T19:59:03.446Z,5.06
2023-03-02T20:01:31.751Z,4.80
2023-03-02T20:04:01.046Z,4.72
2023-03-02T20:06:33.305Z,4.53
2023-03-02T20:09:06.169Z,4.60
2023-03-02T20:11:35.144Z,4.45
2023-03-02T20:14:04.265Z,4.64
2023-03-02T20:16:35.272Z,4.55
2023-03-02T20:19:04.083Z,4.73
2023-03-02T20:21:37.936Z,4.57
2023-03-02T20:24:08.992Z,4.68
2023-03-02T20:26:37.580Z,4.33
2023-03-02T20:29:06.048Z,4.43
2023-03-02T20:31:35.353Z,4.74
2023-03-02T20:34:07.217Z,4.72
2023-03-02T20:36:38.150Z,4.67
2023-03-02T20:39:13.925Z,4.53
2023-03-02T20:41:42.401Z,4.44
2023-03-02T20:44:14.554Z,4.33
2023-03-02T20:46:47.680Z,4.21
2023-03-02T20:49:16.580Z,3.87
2023-03-02T20:51:52.688Z,3.92
2023-03-02T20:54:26.948Z,3.73
2023-03-02T20:56:55.213Z,3.69
2023-03-02T20:59:25.220Z,3.84
2023-03-02T21:01:54.082Z,3.78
2023-03-02T21:04:26.509Z,3.25
2023-03-02T21:06:56.210Z,3.80
2023-03-02T21:09:26.762Z,3.79
2023-03-02T21:11:57.063Z,3.76
2023-03-02T21:14:26.109Z,3.67
2023-03-02T21:16:55.818Z,3.53
2023-03-02T21:19:24.017Z,3.58
2023-03-02T21:21:54.654Z,3.32
2023-03-02T21:24:25.289Z,3.13
2023-03-02T21:26:55.554Z,3.37
2023-03-02T21:29:26.688Z,2.92
2023-03-02T21:31:55.794Z,3.18
2023-03-02T21:34:24.053Z,3.56
2023-03-02T21:36:53.741Z,2.78
2023-03-02T21:39:24.762Z,2.82
2023-03-02T21:41:53.741Z,2.68
2023-03-02T21:44:22.097Z,2.57
2023-03-02T21:46:50.842Z,2.59
2023-03-02T21:49:22.084Z,2.56
2023-03-02T21:51:50.742Z,2.55
2023-03-02T21:54:19.063Z,1.84
2023-03-02T21:56:48.766Z,2.47
2023-03-02T21:59:17.202Z,1.89
2023-03-02T22:01:45.563Z,1.76
2023-03-02T22:04:14.038Z,2.32
2023-03-02T22:06:42.317Z,2.31
2023-03-02T22:09:12.655Z,2.36
2023-03-02T22:11:40.977Z,1.80
2023-03-02T22:14:16.060Z,2.01
2023-03-02T22:16:48.000Z,2.34
2023-03-02T22:19:26.918Z,2.40
2023-03-02T22:21:56.978Z,2.36
2023-03-02T22:24:28.748Z,2.46
2023-03-02T22:27:01.379Z,2.32
2023-03-02T22:29:36.258Z,2.40
2023-03-02T22:32:16.496Z,2.35
2023-03-02T22:34:45.889Z,1.64
2023-03-02T22:37:17.552Z,1.99
2023-03-02T22:39:46.464Z,1.94
2023-03-02T22:42:18.358Z,1.79
2023-03-02T22:44:52.501Z,1.93
2023-03-02T22:47:21.969Z,1.89
2023-03-02T22:49:59.543Z,1.73
2023-03-02T22:52:36.300Z,1.64
2023-03-02T22:55:30.063Z,1.75
2023-03-02T22:57:58.266Z,1.80
2023-03-02T23:00:36.470Z,1.74
2023-03-02T23:03:17.440Z,1.75
2023-03-02T23:05:49.058Z,1.02
2023-03-02T23:08:22.666Z,1.50
2023-03-02T23:10:57.612Z,1.37
2023-03-02T23:13:33.477Z,1.34
2023-03-02T23:16:03.689Z,1.31
2023-03-02T23:18:34.317Z,1.23
2023-03-02T23:21:02.436Z,1.14
2023-03-02T23:23:30.615Z,1.25
2023-03-02T23:25:58.759Z,1.28
2023-03-02T23:28:26.936Z,1.34
2023-03-02T23:30:55.060Z,1.15
2023-03-02T23:33:25.125Z,1.17
2023-03-02T23:35:53.394Z,1.08
2023-03-02T23:38:21.568Z,0.82
2023-03-02T23:40:49.833Z,0.80
2023-03-02T23:43:18.056Z,0.80
2023-03-02T23:45:47.186Z,0.82
2023-03-02T23:48:16.483Z,0.84
2023-03-02T23:50:46.479Z,0.79
2023-03-02T23:53:14.797Z,-0.37
2023-03-02T23:55:49.551Z,0.43
2023-03-02T23:58:18.098Z,0.56
